Webcam Flughafen St.Gallen-Altenrhein

Live-Bilder und Zeitraffer LSZR / ACH.

 

Live aus Altenrhein
LIVE
LSZR 251920Z 26009KT 220V300 9999 BKN050 10/05 Q1003 NOSIG RMK T
Zeitraffer heute
2020-09-25 00:14:06
LSZR 242150Z AUTO 27006G17KT 200V010 8000 RA FEW009 SCT011 BKN035 14/14 Q1006